createdAt,value
2022-10-12T00:00:11.059Z,4.40
2022-10-12T00:02:38.686Z,4.00
2022-10-12T00:05:06.257Z,3.00
2022-10-12T00:07:34.349Z,3.20
2022-10-12T00:10:01.940Z,4.80
2022-10-12T00:12:29.846Z,3.40
2022-10-12T00:14:57.404Z,2.60
2022-10-12T00:17:24.957Z,2.20
2022-10-12T00:19:52.570Z,1.00
2022-10-12T00:22:20.122Z,3.60
2022-10-12T00:24:48.446Z,4.00
2022-10-12T00:27:16.030Z,3.40
2022-10-12T00:29:43.873Z,3.00
2022-10-12T00:32:11.436Z,3.00
2022-10-12T00:34:39.059Z,2.60
2022-10-12T00:37:06.938Z,1.80
2022-10-12T00:39:34.485Z,3.40
2022-10-12T00:42:02.100Z,1.00
2022-10-12T00:44:29.650Z,4.00
2022-10-12T00:46:57.182Z,3.60
2022-10-12T00:49:25.129Z,3.00
2022-10-12T00:51:53.118Z,4.00
2022-10-12T00:54:20.654Z,5.60
2022-10-12T00:56:48.252Z,5.20
2022-10-12T00:59:15.823Z,6.60
2022-10-12T01:01:43.930Z,9.00
2022-10-12T01:04:11.523Z,6.40
2022-10-12T01:06:39.056Z,6.00
2022-10-12T01:09:06.611Z,6.20
2022-10-12T01:11:34.367Z,3.80
2022-10-12T01:14:03.934Z,9.00
2022-10-12T01:16:31.472Z,6.00
2022-10-12T01:18:59.041Z,6.20
2022-10-12T01:21:26.559Z,4.40
2022-10-12T01:23:54.117Z,5.60
2022-10-12T01:26:22.086Z,3.00
2022-10-12T01:28:49.708Z,6.00
2022-10-12T01:31:17.311Z,6.20
2022-10-12T01:33:44.908Z,6.00
2022-10-12T01:36:12.881Z,4.80
2022-10-12T01:38:41.025Z,3.80
2022-10-12T01:41:08.663Z,4.80
2022-10-12T01:43:36.275Z,2.20
2022-10-12T01:46:03.813Z,3.40
2022-10-12T01:48:31.431Z,3.60
2022-10-12T01:50:59.287Z,3.00
2022-10-12T01:53:26.845Z,4.00
2022-10-12T01:55:54.444Z,3.00
2022-10-12T01:58:22.451Z,3.00
2022-10-12T02:00:49.999Z,3.20
2022-10-12T02:03:17.937Z,3.40
2022-10-12T02:05:45.516Z,4.00
2022-10-12T02:08:13.093Z,5.60
2022-10-12T02:10:40.708Z,3.00
2022-10-12T02:13:08.245Z,1.00
2022-10-12T02:15:36.330Z,1.00
2022-10-12T02:18:03.914Z,1.00
2022-10-12T02:20:31.807Z,2.60
2022-10-12T02:22:59.345Z,3.00
2022-10-12T02:25:26.931Z,1.00
2022-10-12T02:27:55.127Z,3.00
2022-10-12T02:30:22.671Z,4.00
2022-10-12T02:32:50.261Z,4.00
2022-10-12T02:35:17.860Z,3.80
2022-10-12T02:37:45.426Z,2.20
2022-10-12T02:40:13.532Z,0.20
2022-10-12T02:43:08.418Z,2.60
2022-10-12T02:45:28.640Z,3.00
2022-10-12T02:47:56.233Z,2.20
2022-10-12T02:50:24.338Z,2.60
2022-10-12T02:52:51.945Z,4.00
2022-10-12T02:55:19.462Z,3.80
2022-10-12T02:57:47.021Z,0.00
2022-10-12T03:00:14.627Z,2.60
2022-10-12T03:02:44.238Z,3.20
2022-10-12T03:05:11.780Z,3.60
2022-10-12T03:07:39.976Z,2.20
2022-10-12T03:10:07.948Z,5.20
2022-10-12T03:12:35.582Z,4.40
2022-10-12T03:15:03.693Z,3.00
2022-10-12T03:17:31.251Z,3.40
2022-10-12T03:19:59.358Z,3.40
2022-10-12T03:22:27.098Z,3.40
2022-10-12T03:24:55.031Z,3.60
2022-10-12T03:27:23.300Z,3.40
2022-10-12T03:29:50.856Z,3.60
2022-10-12T03:32:18.404Z,4.00
2022-10-12T03:34:45.969Z,3.00
2022-10-12T03:37:13.567Z,5.20
2022-10-12T03:39:41.714Z,4.00
2022-10-12T03:42:09.293Z,3.00
2022-10-12T03:44:37.366Z,3.00
2022-10-12T03:47:04.910Z,3.00
2022-10-12T03:49:32.455Z,1.00
2022-10-12T03:52:00.378Z,1.00
2022-10-12T03:54:27.924Z,4.00
2022-10-12T03:56:55.456Z,2.20
2022-10-12T03:59:23.080Z,3.00
2022-10-12T04:01:50.683Z,4.00
2022-10-12T04:04:18.612Z,4.00
2022-10-12T04:06:46.623Z,1.40
2022-10-12T04:09:14.196Z,3.60
2022-10-12T04:11:41.762Z,1.80
2022-10-12T04:14:09.401Z,3.80
2022-10-12T04:16:37.283Z,3.20
2022-10-12T04:19:04.864Z,4.80
2022-10-12T04:21:32.452Z,3.60
2022-10-12T04:24:00.087Z,3.00
2022-10-12T04:26:27.612Z,3.40
2022-10-12T04:28:57.694Z,1.80
2022-10-12T04:31:25.238Z,5.60
2022-10-12T04:33:56.554Z,3.40
2022-10-12T04:36:24.179Z,2.60
2022-10-12T04:38:51.789Z,3.60
2022-10-12T04:41:19.923Z,1.00
2022-10-12T04:43:47.533Z,4.00
2022-10-12T04:46:15.489Z,3.80
2022-10-12T04:48:43.053Z,3.40
2022-10-12T04:51:11.127Z,2.20
2022-10-12T04:53:39.083Z,3.60
2022-10-12T04:56:06.651Z,3.60
2022-10-12T04:58:34.272Z,4.00
2022-10-12T05:01:02.035Z,3.60
2022-10-12T05:03:30.071Z,3.00
2022-10-12T05:05:58.259Z,1.80
2022-10-12T05:08:25.846Z,4.60
2022-10-12T05:10:53.458Z,4.20
2022-10-12T05:13:21.465Z,3.40
2022-10-12T05:15:49.050Z,3.00
2022-10-12T05:18:17.031Z,3.00
2022-10-12T05:20:44.690Z,4.80
2022-10-12T05:23:12.308Z,4.40
2022-10-12T05:25:39.883Z,3.00
2022-10-12T05:28:07.743Z,1.40
2022-10-12T05:30:35.911Z,4.40
2022-10-12T05:33:03.510Z,4.00
2022-10-12T05:35:31.613Z,3.00
2022-10-12T05:37:59.215Z,2.60
2022-10-12T05:40:26.779Z,0.40
2022-10-12T05:42:54.976Z,0.00
2022-10-12T05:45:22.724Z,1.40
2022-10-12T05:47:50.344Z,3.40
2022-10-12T05:50:17.976Z,0.00
2022-10-12T05:52:45.634Z,3.40
2022-10-12T05:55:13.536Z,3.00
2022-10-12T05:57:41.599Z,1.00
2022-10-12T06:00:09.680Z,0.00
2022-10-12T06:02:37.525Z,1.00
2022-10-12T06:05:05.337Z,2.40
2022-10-12T06:07:33.522Z,3.00
2022-10-12T06:10:01.393Z,4.00
2022-10-12T06:12:29.013Z,4.40
2022-10-12T06:14:56.655Z,1.80
2022-10-12T06:17:24.317Z,3.80
2022-10-12T06:19:52.464Z,4.40
2022-10-12T06:22:20.120Z,6.00
2022-10-12T06:24:47.741Z,6.40
2022-10-12T06:27:17.725Z,3.00
2022-10-12T06:29:45.441Z,1.40
2022-10-12T06:32:13.686Z,4.20
2022-10-12T06:34:41.352Z,1.80
2022-10-12T06:37:16.406Z,4.00
2022-10-12T06:39:57.843Z,6.00
2022-10-12T06:42:26.648Z,6.00
2022-10-12T06:44:54.422Z,6.00
2022-10-12T06:47:22.177Z,6.60
2022-10-12T06:49:49.872Z,5.60
2022-10-12T06:52:17.654Z,8.20
2022-10-12T06:54:46.142Z,3.80
2022-10-12T06:57:13.940Z,5.60
2022-10-12T06:59:41.696Z,3.40
2022-10-12T07:02:09.913Z,4.00
2022-10-12T07:04:37.929Z,1.00
2022-10-12T07:07:06.217Z,3.20
2022-10-12T07:09:33.951Z,6.60
2022-10-12T07:12:01.744Z,4.00
2022-10-12T07:14:29.585Z,3.60
2022-10-12T07:16:57.368Z,5.20
2022-10-12T07:19:25.997Z,4.00
2022-10-12T07:21:53.650Z,6.60
2022-10-12T07:24:21.942Z,4.40
2022-10-12T07:26:49.804Z,3.60
2022-10-12T07:29:17.564Z,2.60
2022-10-12T07:31:49.758Z,6.40
2022-10-12T07:34:19.793Z,6.00
2022-10-12T07:36:59.176Z,12.40
2022-10-12T07:39:27.133Z,7.00
2022-10-12T07:41:55.635Z,11.00
2022-10-12T07:44:24.805Z,6.00
2022-10-12T07:46:52.644Z,7.40
2022-10-12T07:49:20.405Z,9.00
2022-10-12T07:51:48.241Z,6.00
2022-10-12T07:54:20.415Z,6.00
2022-10-12T07:56:49.722Z,7.80
2022-10-12T07:59:17.433Z,3.00
2022-10-12T08:01:45.353Z,3.60
2022-10-12T08:04:13.149Z,9.00
2022-10-12T08:06:42.500Z,9.00
2022-10-12T08:09:10.338Z,7.20
2022-10-12T08:11:38.195Z,4.00
2022-10-12T08:14:05.982Z,5.80
2022-10-12T08:16:33.742Z,9.00
2022-10-12T08:19:02.114Z,6.40
2022-10-12T08:21:30.023Z,4.00
2022-10-12T08:23:57.855Z,6.00
2022-10-12T08:26:25.781Z,9.25
2022-10-12T08:28:54.206Z,6.50
2022-10-12T08:31:22.649Z,5.00
2022-10-12T08:33:50.510Z,6.25
2022-10-12T08:36:18.483Z,4.00
2022-10-12T08:38:48.839Z,4.00
2022-10-12T08:41:16.774Z,4.00
2022-10-12T08:43:44.955Z,6.00
2022-10-12T08:46:12.985Z,3.00
2022-10-12T08:48:40.883Z,5.75
2022-10-12T08:51:11.119Z,4.00
2022-10-12T08:53:39.179Z,7.00
2022-10-12T08:56:07.809Z,5.00
2022-10-12T08:58:35.726Z,6.00
2022-10-12T09:01:03.570Z,4.50
2022-10-12T09:03:31.469Z,3.50
2022-10-12T09:05:59.403Z,3.25
2022-10-12T09:08:27.922Z,3.50
2022-10-12T09:10:56.148Z,7.75
2022-10-12T09:13:24.544Z,4.00
2022-10-12T09:15:53.207Z,3.25
2022-10-12T09:18:21.089Z,3.25
2022-10-12T09:20:49.655Z,4.00
2022-10-12T09:23:17.527Z,3.50
2022-10-12T09:25:46.720Z,4.00
2022-10-12T09:28:14.476Z,6.00
2022-10-12T09:30:42.445Z,6.00
2022-10-12T09:33:10.906Z,4.25
2022-10-12T09:35:39.140Z,5.50
2022-10-12T09:38:07.263Z,4.00
2022-10-12T09:40:35.415Z,3.00
2022-10-12T09:43:03.217Z,5.50
2022-10-12T09:45:31.276Z,6.50
2022-10-12T09:47:59.050Z,3.25
2022-10-12T09:50:26.929Z,4.00
2022-10-12T09:52:55.477Z,5.00
2022-10-12T09:55:23.581Z,3.50
2022-10-12T09:57:52.777Z,2.00
2022-10-12T10:00:20.624Z,4.00
2022-10-12T10:02:48.535Z,3.75
2022-10-12T10:05:16.489Z,5.00
2022-10-12T10:07:44.417Z,3.20
2022-10-12T10:10:13.289Z,1.00
2022-10-12T10:12:41.509Z,3.60
2022-10-12T10:15:09.288Z,3.00
2022-10-12T10:17:37.384Z,3.00
2022-10-12T10:20:05.423Z,3.80
2022-10-12T10:22:33.534Z,2.60
2022-10-12T10:25:01.673Z,3.80
2022-10-12T10:27:29.532Z,1.00
2022-10-12T10:30:10.831Z,3.00
2022-10-12T10:32:46.083Z,4.00
2022-10-12T10:35:13.977Z,2.60
2022-10-12T10:37:42.017Z,9.00
2022-10-12T10:40:10.984Z,6.40
2022-10-12T10:42:38.956Z,5.60
2022-10-12T10:45:07.952Z,2.60
2022-10-12T10:47:35.955Z,7.00
2022-10-12T10:50:03.791Z,6.80
2022-10-12T10:52:31.615Z,4.00
2022-10-12T10:54:59.564Z,3.00
2022-10-12T10:57:27.949Z,3.40
2022-10-12T10:59:55.735Z,3.40
2022-10-12T11:02:23.983Z,1.80
2022-10-12T11:04:51.804Z,3.00
2022-10-12T11:07:19.771Z,1.00
2022-10-12T11:09:48.664Z,1.40
2022-10-12T11:12:16.699Z,1.80
2022-10-12T11:14:44.631Z,1.80
2022-10-12T11:17:12.567Z,3.00
2022-10-12T11:19:40.464Z,0.00
2022-10-12T11:22:09.011Z,3.00
2022-10-12T11:24:37.238Z,0.80
2022-10-12T11:27:05.205Z,2.20
2022-10-12T11:29:33.056Z,1.40
2022-10-12T11:32:01.017Z,1.40
2022-10-12T11:34:29.099Z,0.60
2022-10-12T11:37:18.173Z,1.00
2022-10-12T11:39:44.918Z,1.00
2022-10-12T11:42:27.856Z,0.40
2022-10-12T11:44:57.468Z,2.60
2022-10-12T11:47:25.392Z,3.00
2022-10-12T11:49:53.608Z,1.00
2022-10-12T11:52:25.101Z,2.40
2022-10-12T11:54:56.688Z,1.80
2022-10-12T11:57:25.029Z,4.00
2022-10-12T11:59:53.729Z,0.00
2022-10-12T12:02:21.694Z,1.00
2022-10-12T12:04:49.867Z,0.60
2022-10-12T12:07:18.516Z,0.60
2022-10-12T12:09:50.269Z,1.00
2022-10-12T12:12:18.815Z,1.80
2022-10-12T12:14:47.090Z,1.00
2022-10-12T12:17:14.921Z,1.00
2022-10-12T12:19:43.341Z,1.00
2022-10-12T12:22:12.350Z,3.20
2022-10-12T12:24:40.261Z,0.60
2022-10-12T12:27:08.786Z,1.00
2022-10-12T12:29:36.559Z,3.20
2022-10-12T12:32:04.481Z,2.00
2022-10-12T12:34:32.735Z,1.00
2022-10-12T12:37:00.634Z,3.40
2022-10-12T12:39:30.588Z,4.00
2022-10-12T12:42:01.984Z,1.60
2022-10-12T12:44:30.852Z,1.80
2022-10-12T12:46:59.202Z,2.80
2022-10-12T12:49:27.144Z,2.00
2022-10-12T12:51:55.165Z,1.40
2022-10-12T12:54:23.020Z,1.40
2022-10-12T12:56:51.533Z,1.00
2022-10-12T12:59:19.619Z,2.20
2022-10-12T13:01:47.452Z,2.00
2022-10-12T13:04:15.320Z,3.40
2022-10-12T13:06:43.211Z,1.00
2022-10-12T13:09:11.108Z,3.20
2022-10-12T13:11:39.343Z,2.40
2022-10-12T13:14:07.238Z,3.20
2022-10-12T13:17:30.015Z,1.00
2022-10-12T13:19:23.783Z,1.00
2022-10-12T13:21:51.584Z,1.40
2022-10-12T13:24:19.464Z,1.40
2022-10-12T13:26:47.325Z,2.20
2022-10-12T13:29:15.281Z,2.20
2022-10-12T13:31:45.189Z,2.20
2022-10-12T13:34:13.025Z,4.60
2022-10-12T13:36:41.057Z,4.00
2022-10-12T13:39:08.839Z,1.60
2022-10-12T13:41:36.816Z,1.00
2022-10-12T13:44:05.006Z,2.40
2022-10-12T13:46:33.614Z,4.00
2022-10-12T13:49:01.533Z,4.00
2022-10-12T13:51:29.398Z,4.00
2022-10-12T13:53:57.698Z,4.40
2022-10-12T13:56:26.029Z,3.60
2022-10-12T13:58:54.461Z,3.00
2022-10-12T14:01:22.348Z,4.00
2022-10-12T14:03:50.407Z,4.40
2022-10-12T14:06:18.145Z,3.00
2022-10-12T14:08:46.144Z,3.00
2022-10-12T14:11:14.709Z,5.60
2022-10-12T14:13:42.748Z,6.80
2022-10-12T14:16:10.600Z,4.00
2022-10-12T14:18:38.972Z,3.00
2022-10-12T14:21:07.277Z,3.80
2022-10-12T14:23:35.724Z,3.00
2022-10-12T14:26:03.488Z,5.20
2022-10-12T14:28:31.471Z,3.20
2022-10-12T14:30:59.490Z,4.00
2022-10-12T14:33:27.856Z,3.20
2022-10-12T14:35:56.624Z,5.20
2022-10-12T14:38:24.434Z,4.80
2022-10-12T14:40:54.220Z,4.00
2022-10-12T14:43:24.391Z,3.00
2022-10-12T14:45:52.767Z,4.00
2022-10-12T14:48:21.227Z,4.80
2022-10-12T14:50:49.121Z,3.60
2022-10-12T14:53:17.002Z,3.20
2022-10-12T14:55:45.242Z,7.00
2022-10-12T14:58:15.097Z,6.00
2022-10-12T15:00:43.240Z,6.00
2022-10-12T15:03:11.214Z,1.80
2022-10-12T15:05:38.930Z,3.00
2022-10-12T15:08:09.258Z,6.20
2022-10-12T15:10:37.877Z,5.60
2022-10-12T15:13:06.111Z,5.20
2022-10-12T15:15:33.934Z,3.80
2022-10-12T15:18:01.848Z,4.00
2022-10-12T15:20:30.012Z,3.60
2022-10-12T15:22:57.871Z,3.00
2022-10-12T15:25:26.261Z,4.60
2022-10-12T15:27:54.200Z,4.00
2022-10-12T15:30:22.144Z,6.80
2022-10-12T15:32:50.110Z,4.00
2022-10-12T15:35:18.249Z,5.80
2022-10-12T15:37:46.403Z,3.20
2022-10-12T15:40:14.314Z,3.40
2022-10-12T15:42:42.852Z,4.80
2022-10-12T15:45:10.538Z,3.80
2022-10-12T15:47:38.781Z,4.00
2022-10-12T15:50:06.980Z,4.00
2022-10-12T15:52:34.766Z,6.00
2022-10-12T15:55:02.663Z,4.00
2022-10-12T15:57:30.680Z,6.40
2022-10-12T15:59:58.741Z,28.25
2022-10-12T16:02:27.582Z,17.25
2022-10-12T16:04:55.485Z,25.75
2022-10-12T16:07:23.223Z,15.00
2022-10-12T16:09:51.248Z,15.75
2022-10-12T16:12:19.129Z,10.00
2022-10-12T16:14:47.577Z,6.20
2022-10-12T16:17:15.764Z,3.20
2022-10-12T16:19:44.013Z,3.20
2022-10-12T16:22:12.103Z,3.25
2022-10-12T16:24:41.379Z,3.00
2022-10-12T16:27:09.640Z,5.80
2022-10-12T16:29:37.748Z,4.00
2022-10-12T16:32:05.814Z,5.00
2022-10-12T16:34:33.651Z,6.25
2022-10-12T16:37:02.062Z,5.50
2022-10-12T16:39:30.410Z,6.75
2022-10-12T16:41:58.302Z,5.00
2022-10-12T16:44:26.244Z,6.00
2022-10-12T16:46:54.149Z,4.50
2022-10-12T16:49:22.452Z,9.00
2022-10-12T16:51:50.825Z,13.00
2022-10-12T16:54:18.737Z,6.00
2022-10-12T16:56:46.615Z,6.75
2022-10-12T16:59:14.566Z,4.00
2022-10-12T17:01:43.178Z,3.25
2022-10-12T17:04:11.543Z,4.00
2022-10-12T17:06:39.831Z,5.50
2022-10-12T17:09:07.749Z,6.25
2022-10-12T17:11:35.691Z,5.00
2022-10-12T17:14:03.623Z,4.00
2022-10-12T17:16:49.545Z,6.00
2022-10-12T17:19:17.479Z,3.50
2022-10-12T17:21:45.340Z,3.25
2022-10-12T17:24:13.290Z,5.50
2022-10-12T17:26:41.670Z,4.50
2022-10-12T17:29:09.991Z,6.50
2022-10-12T17:31:37.801Z,8.00
2022-10-12T17:34:07.338Z,17.25
2022-10-12T17:36:35.344Z,26.75
2022-10-12T17:39:03.278Z,6.00
2022-10-12T17:41:31.563Z,7.00
2022-10-12T17:43:59.509Z,7.00
2022-10-12T17:46:28.339Z,7.50
2022-10-12T17:48:56.333Z,4.50
2022-10-12T17:51:24.173Z,6.00
2022-10-12T17:53:52.484Z,6.25
2022-10-12T17:56:20.572Z,6.00
2022-10-12T17:58:48.494Z,6.00
2022-10-12T18:01:16.975Z,3.50
2022-10-12T18:03:46.936Z,8.50
2022-10-12T18:06:15.467Z,6.75
2022-10-12T18:08:43.598Z,3.00
2022-10-12T18:11:12.008Z,4.00
2022-10-12T18:13:40.095Z,5.00
2022-10-12T18:16:08.061Z,4.50
2022-10-12T18:18:36.416Z,4.00
2022-10-12T18:21:04.230Z,5.00
2022-10-12T18:23:32.164Z,11.75
2022-10-12T18:26:00.492Z,21.25
2022-10-12T18:28:28.401Z,38.50
2022-10-12T18:30:56.821Z,33.50
2022-10-12T18:33:25.144Z,14.00
2022-10-12T18:35:52.938Z,9.50
2022-10-12T18:38:21.106Z,10.50
2022-10-12T18:40:48.970Z,3.00
2022-10-12T18:43:17.255Z,7.50
2022-10-12T18:45:45.218Z,3.50
2022-10-12T18:48:13.015Z,4.50
2022-10-12T18:50:40.840Z,6.50
2022-10-12T18:53:08.674Z,6.50
2022-10-12T18:55:37.226Z,7.00
2022-10-12T18:58:05.108Z,7.00
2022-10-12T19:00:33.118Z,5.50
2022-10-12T19:03:01.163Z,7.00
2022-10-12T19:05:28.926Z,6.75
2022-10-12T19:07:57.269Z,9.50
2022-10-12T19:10:25.181Z,4.75
2022-10-12T19:12:52.948Z,6.75
2022-10-12T19:15:20.890Z,7.00
2022-10-12T19:17:48.752Z,6.00
2022-10-12T19:20:17.450Z,8.00
2022-10-12T19:22:45.424Z,7.00
2022-10-12T19:25:13.387Z,6.25
2022-10-12T19:27:41.232Z,6.00
2022-10-12T19:30:09.513Z,6.25
2022-10-12T19:32:37.831Z,8.50
2022-10-12T19:35:05.727Z,7.00
2022-10-12T19:37:33.707Z,6.00
2022-10-12T19:40:07.474Z,8.50
2022-10-12T19:42:35.892Z,8.00
2022-10-12T19:45:03.917Z,3.00
2022-10-12T19:47:31.871Z,5.75
2022-10-12T19:49:59.770Z,7.75
2022-10-12T19:52:27.771Z,7.75
2022-10-12T19:54:55.542Z,3.75
2022-10-12T19:57:24.323Z,7.00
2022-10-12T19:59:52.084Z,4.00
2022-10-12T20:02:20.668Z,3.25
2022-10-12T20:04:54.171Z,3.25
2022-10-12T20:07:22.174Z,5.00
2022-10-12T20:09:50.496Z,1.00
2022-10-12T20:12:18.587Z,6.00
2022-10-12T20:14:46.733Z,4.00
2022-10-12T20:17:14.880Z,6.25
2022-10-12T20:19:42.683Z,4.00
2022-10-12T20:22:11.097Z,4.00
2022-10-12T20:24:39.314Z,6.25
2022-10-12T20:27:07.197Z,3.25
2022-10-12T20:29:35.126Z,4.00
2022-10-12T20:32:03.020Z,7.25
2022-10-12T20:34:31.090Z,5.50
2022-10-12T20:36:58.924Z,7.00
2022-10-12T20:39:26.820Z,9.00
2022-10-12T20:41:54.998Z,7.00
2022-10-12T20:44:22.936Z,8.50
2022-10-12T20:46:51.071Z,5.00
2022-10-12T20:49:19.059Z,2.25
2022-10-12T20:51:46.945Z,7.00
2022-10-12T20:54:16.430Z,8.00
2022-10-12T20:56:46.804Z,9.00
2022-10-12T20:59:15.058Z,8.50
2022-10-12T21:01:42.889Z,13.50
2022-10-12T21:04:11.699Z,13.50
2022-10-12T21:06:42.905Z,11.00
2022-10-12T21:09:10.741Z,8.00
2022-10-12T21:11:39.126Z,6.00
2022-10-12T21:14:07.080Z,7.00
2022-10-12T21:16:34.873Z,11.25
2022-10-12T21:19:02.993Z,12.25
2022-10-12T21:21:30.840Z,4.00
2022-10-12T21:23:59.142Z,9.75
2022-10-12T21:26:27.061Z,9.00
2022-10-12T21:28:55.386Z,9.00
2022-10-12T21:31:25.215Z,11.00
2022-10-12T21:33:56.049Z,11.25
2022-10-12T21:36:24.007Z,13.50
2022-10-12T21:38:51.936Z,12.75
2022-10-12T21:41:19.856Z,15.80
2022-10-12T21:43:48.637Z,13.75
2022-10-12T21:46:16.362Z,18.00
2022-10-12T21:48:44.540Z,12.00
2022-10-12T21:51:12.470Z,21.40
2022-10-12T21:53:40.209Z,12.40
2022-10-12T21:56:08.125Z,13.40
2022-10-12T21:58:35.921Z,14.40
2022-10-12T22:01:04.288Z,8.60
2022-10-12T22:03:32.141Z,13.00
2022-10-12T22:05:59.845Z,14.20
2022-10-12T22:08:27.775Z,15.20
2022-10-12T22:10:55.597Z,13.40
2022-10-12T22:13:24.120Z,15.40
2022-10-12T22:15:51.829Z,15.60
2022-10-12T22:18:19.570Z,7.20
2022-10-12T22:20:47.500Z,16.60
2022-10-12T22:23:15.150Z,12.20
2022-10-12T22:25:43.237Z,10.00
2022-10-12T22:28:10.964Z,10.80
2022-10-12T22:30:38.597Z,10.80
2022-10-12T22:33:06.543Z,12.00
2022-10-12T22:35:34.543Z,11.80
2022-10-12T22:38:02.548Z,9.40
2022-10-12T22:40:30.173Z,10.80
2022-10-12T22:42:57.741Z,4.00
2022-10-12T22:45:27.998Z,9.20
2022-10-12T22:47:56.006Z,10.40
2022-10-12T22:50:23.996Z,12.80
2022-10-12T22:52:51.636Z,14.20
2022-10-12T22:55:19.302Z,11.40
2022-10-12T22:57:48.418Z,12.20
2022-10-12T23:00:16.030Z,8.00
2022-10-12T23:02:44.078Z,10.20
2022-10-12T23:05:11.733Z,10.00
2022-10-12T23:07:39.406Z,7.00
2022-10-12T23:10:07.529Z,4.00
2022-10-12T23:12:35.145Z,15.60
2022-10-12T23:15:03.090Z,9.20
2022-10-12T23:17:30.845Z,13.80
2022-10-12T23:19:58.459Z,13.80
2022-10-12T23:22:26.123Z,13.40
2022-10-12T23:24:53.778Z,9.80
2022-10-12T23:27:21.734Z,12.80
2022-10-12T23:29:49.426Z,7.80
2022-10-12T23:32:17.472Z,11.60
2022-10-12T23:34:45.452Z,13.20
2022-10-12T23:37:13.036Z,12.60
2022-10-12T23:39:41.004Z,12.40
2022-10-12T23:42:08.620Z,12.20
2022-10-12T23:44:36.218Z,12.80
2022-10-12T23:47:03.996Z,9.60
2022-10-12T23:49:31.610Z,12.20
2022-10-12T23:51:59.572Z,11.60
2022-10-12T23:54:27.208Z,15.00
2022-10-12T23:56:54.775Z,7.20
2022-10-12T23:59:22.599Z,9.80
